Andersontown, Pennsylvania
Current Conditions -  °F | °C
As of 12:56 PM on Monday 26 Jan 2015 (Local Time) from KCXY Reporting Station
Haze Haze  
Wind Chill: -10°   Ceiling: 1900
Heat Index: -4°   Visibility: 6mi
Dew Point: -8°   Wind: 9mph
Humidity: 77%   Direction: 60°ENE
Pressure: 29.82"   Gusts: NA
Location:  40.208°N, 77.0098°W
Report Text: KCXY 261756Z 06008KT 6SM HZ OVC019 M04/M08 A2982 RMK AO2 SNB35E52 SLP102 P0000 60000 T10441078 11044 21044 58020
Loading
Personal Weather Stations






























Interactive Weather Map New forecast layout! Learn more

10-Day Weather Forecast

Advertisements
Track Severe Weather on mobile